createdAt,value
2018-06-08T00:00:38.181Z,62.17
2018-06-08T00:01:38.656Z,62.08
2018-06-08T00:02:39.127Z,62.11
2018-06-08T00:03:39.600Z,62.22
2018-06-08T00:04:40.072Z,62.30
2018-06-08T00:05:40.544Z,62.10
2018-06-08T00:06:41.018Z,62.44
2018-06-08T00:07:41.491Z,62.64
2018-06-08T00:08:41.970Z,62.64
2018-06-08T00:09:42.440Z,62.44
2018-06-08T00:10:42.912Z,62.38
2018-06-08T00:11:43.385Z,62.46
2018-06-08T00:12:43.863Z,62.15
2018-06-08T00:13:44.337Z,62.29
2018-06-08T00:14:44.810Z,62.43
2018-06-08T00:15:45.286Z,62.12
2018-06-08T00:16:45.760Z,62.20
2018-06-08T00:17:46.236Z,62.29
2018-06-08T00:18:46.718Z,62.37
2018-06-08T00:19:47.184Z,62.43
2018-06-08T00:20:47.658Z,62.42
2018-06-08T00:21:48.134Z,62.48
2018-06-08T00:22:48.610Z,62.34
2018-06-08T00:23:49.084Z,62.39
2018-06-08T00:24:49.562Z,62.45
2018-06-08T00:25:50.034Z,62.42
2018-06-08T00:26:50.512Z,62.75
2018-06-08T00:27:50.982Z,62.50
2018-06-08T00:28:51.457Z,62.53
2018-06-08T00:29:51.930Z,62.53
2018-06-08T00:30:52.406Z,62.30
2018-06-08T00:31:52.883Z,62.47
2018-06-08T00:32:53.353Z,62.49
2018-06-08T00:33:53.828Z,62.52
2018-06-08T00:34:54.299Z,62.49
2018-06-08T00:35:54.777Z,62.54
2018-06-08T00:36:55.248Z,62.68
2018-06-08T00:37:55.721Z,63.19
2018-06-08T00:38:56.192Z,63.16
2018-06-08T00:39:56.668Z,62.82
2018-06-08T00:40:57.140Z,62.62
2018-06-08T00:41:57.611Z,62.25
2018-06-08T00:42:58.085Z,62.48
2018-06-08T00:43:58.555Z,62.62
2018-06-08T00:44:59.028Z,62.56
2018-06-08T00:45:59.501Z,62.64
2018-06-08T00:46:59.972Z,62.67
2018-06-08T00:48:00.444Z,62.72
2018-06-08T00:49:00.917Z,63.06
2018-06-08T00:50:01.433Z,63.12
2018-06-08T00:51:01.859Z,62.78
2018-06-08T00:52:02.331Z,62.66
2018-06-08T00:53:02.800Z,62.63
2018-06-08T00:54:03.272Z,62.60
2018-06-08T00:55:03.743Z,62.57
2018-06-08T00:56:04.215Z,62.71
2018-06-08T00:57:04.684Z,62.99
2018-06-08T00:58:05.156Z,62.82
2018-06-08T00:59:05.627Z,62.70
2018-06-08T01:00:06.102Z,62.70
2018-06-08T01:01:06.571Z,62.68
2018-06-08T01:02:07.040Z,62.67
2018-06-08T01:03:07.513Z,62.70
2018-06-08T01:04:07.983Z,62.61
2018-06-08T01:05:08.455Z,62.67
2018-06-08T01:06:08.931Z,62.72
2018-06-08T01:07:09.401Z,62.86
2018-06-08T01:08:09.869Z,62.83
2018-06-08T01:09:10.344Z,62.92
2018-06-08T01:10:10.814Z,63.02
2018-06-08T01:11:11.286Z,63.05
2018-06-08T01:12:11.758Z,63.25
2018-06-08T01:13:12.232Z,63.11
2018-06-08T01:14:12.709Z,63.14
2018-06-08T01:15:13.178Z,63.22
2018-06-08T01:16:13.651Z,63.13
2018-06-08T01:17:14.124Z,63.36
2018-06-08T01:18:14.599Z,63.24
2018-06-08T01:19:15.072Z,63.24
2018-06-08T01:20:15.549Z,63.30
2018-06-08T01:21:16.023Z,63.41
2018-06-08T01:22:16.497Z,63.38
2018-06-08T01:23:16.969Z,63.32
2018-06-08T01:24:17.444Z,63.32
2018-06-08T01:25:17.919Z,63.38
2018-06-08T01:26:18.595Z,63.26
2018-06-08T01:27:18.869Z,63.26
2018-06-08T01:28:19.342Z,63.23
2018-06-08T01:29:19.818Z,63.26
2018-06-08T01:30:20.294Z,63.26
2018-06-08T01:31:20.767Z,63.26
2018-06-08T01:32:21.244Z,63.22
2018-06-08T01:33:21.718Z,63.22
2018-06-08T01:34:22.194Z,63.22
2018-06-08T01:35:22.668Z,63.22
2018-06-08T01:36:23.143Z,63.22
2018-06-08T01:37:23.617Z,63.25
2018-06-08T01:38:24.092Z,63.22
2018-06-08T01:39:24.565Z,63.25
2018-06-08T01:40:25.039Z,63.22
2018-06-08T01:41:25.513Z,63.24
2018-06-08T01:42:25.989Z,63.21
2018-06-08T01:43:26.459Z,63.24
2018-06-08T01:44:26.934Z,63.21
2018-06-08T01:45:27.407Z,63.21
2018-06-08T01:46:27.892Z,63.26
2018-06-08T01:47:28.355Z,63.21
2018-06-08T01:48:28.829Z,63.26
2018-06-08T01:49:29.303Z,63.15
2018-06-08T01:50:29.775Z,63.20
2018-06-08T01:51:30.245Z,63.23
2018-06-08T01:52:30.720Z,63.25
2018-06-08T01:53:31.189Z,63.25
2018-06-08T01:54:31.662Z,63.25
2018-06-08T01:55:32.136Z,63.22
2018-06-08T01:56:32.605Z,63.22
2018-06-08T01:57:33.075Z,63.19
2018-06-08T01:58:33.547Z,63.19
2018-06-08T01:59:34.018Z,63.22
2018-06-08T02:00:34.490Z,63.19
2018-06-08T02:01:34.961Z,63.21
2018-06-08T02:02:35.435Z,63.26
2018-06-08T02:03:35.904Z,63.18
2018-06-08T02:04:36.377Z,63.26
2018-06-08T02:05:36.845Z,63.26
2018-06-08T02:06:37.316Z,63.29
2018-06-08T02:07:37.787Z,63.29
2018-06-08T02:08:38.258Z,63.29
2018-06-08T02:09:38.729Z,63.28
2018-06-08T02:10:39.201Z,63.31
2018-06-08T02:11:39.672Z,63.28
2018-06-08T02:12:40.144Z,63.28
2018-06-08T02:13:40.614Z,63.28
2018-06-08T02:14:41.085Z,63.27
2018-06-08T02:15:41.557Z,63.30
2018-06-08T02:16:42.030Z,63.32
2018-06-08T02:17:42.505Z,63.27
2018-06-08T02:18:42.973Z,63.27
2018-06-08T02:19:43.450Z,63.29
2018-06-08T02:20:43.918Z,63.26
2018-06-08T02:21:44.391Z,63.18
2018-06-08T02:22:44.863Z,63.12
2018-06-08T02:23:45.336Z,63.01
2018-06-08T02:24:45.810Z,63.09
2018-06-08T02:25:46.281Z,63.06
2018-06-08T02:26:46.759Z,62.89
2018-06-08T02:27:47.230Z,62.91
2018-06-08T02:28:47.702Z,62.83
2018-06-08T02:29:48.177Z,62.94
2018-06-08T02:30:48.650Z,62.93
2018-06-08T02:31:49.127Z,62.85
2018-06-08T02:32:49.599Z,62.96
2018-06-08T02:33:50.075Z,62.93
2018-06-08T02:34:50.549Z,62.87
2018-06-08T02:35:51.023Z,62.84
2018-06-08T02:36:51.498Z,62.76
2018-06-08T02:37:51.972Z,62.64
2018-06-08T02:38:52.448Z,62.73
2018-06-08T02:39:52.921Z,62.78
2018-06-08T02:40:53.397Z,62.98
2018-06-08T02:41:53.870Z,62.75
2018-06-08T02:42:54.348Z,62.80
2018-06-08T02:43:54.827Z,62.95
2018-06-08T02:44:55.297Z,62.77
2018-06-08T02:45:55.771Z,62.83
2018-06-08T02:46:56.245Z,62.69
2018-06-08T02:47:56.724Z,62.74
2018-06-08T02:48:57.194Z,62.69
2018-06-08T02:49:57.666Z,62.68
2018-06-08T02:50:58.142Z,62.77
2018-06-08T02:51:58.615Z,62.71
2018-06-08T02:52:59.088Z,62.82
2018-06-08T02:53:59.565Z,62.71
2018-06-08T02:55:00.044Z,62.71
2018-06-08T02:56:00.507Z,62.59
2018-06-08T02:57:00.982Z,62.62
2018-06-08T02:58:01.455Z,62.65
2018-06-08T02:59:01.928Z,62.56
2018-06-08T03:00:02.399Z,62.50
2018-06-08T03:01:02.871Z,62.44
2018-06-08T03:02:03.345Z,62.47
2018-06-08T03:03:03.816Z,62.41
2018-06-08T03:04:04.290Z,62.41
2018-06-08T03:05:04.760Z,62.41
2018-06-08T03:06:05.235Z,62.47
2018-06-08T03:07:05.706Z,62.46
2018-06-08T03:08:06.174Z,62.52
2018-06-08T03:10:07.119Z,62.40
2018-06-08T03:11:07.589Z,62.54
2018-06-08T03:12:08.111Z,62.63
2018-06-08T03:13:08.531Z,62.51
2018-06-08T03:14:09.001Z,62.62
2018-06-08T03:15:09.473Z,62.59
2018-06-08T03:16:09.942Z,62.59
2018-06-08T03:17:10.466Z,62.62
2018-06-08T03:18:10.884Z,62.56
2018-06-08T03:19:11.359Z,62.45
2018-06-08T03:20:11.827Z,62.50
2018-06-08T03:21:12.299Z,62.39
2018-06-08T03:22:12.770Z,62.69
2018-06-08T03:23:13.242Z,62.58
2018-06-08T03:24:13.713Z,62.52
2018-06-08T03:25:14.184Z,62.49
2018-06-08T03:26:14.657Z,62.55
2018-06-08T03:27:15.130Z,62.63
2018-06-08T03:28:15.600Z,62.69
2018-06-08T03:29:16.073Z,62.71
2018-06-08T03:30:16.550Z,62.80
2018-06-08T03:31:17.021Z,62.88
2018-06-08T03:32:17.489Z,62.68
2018-06-08T03:33:17.962Z,62.74
2018-06-08T03:34:18.435Z,62.82
2018-06-08T03:35:18.907Z,62.90
2018-06-08T03:36:19.380Z,62.81
2018-06-08T03:37:19.856Z,62.87
2018-06-08T03:38:20.327Z,62.98
2018-06-08T03:39:20.807Z,62.93
2018-06-08T03:40:21.276Z,62.95
2018-06-08T03:41:21.749Z,62.92
2018-06-08T03:42:22.222Z,62.95
2018-06-08T03:43:22.697Z,63.03
2018-06-08T03:44:23.171Z,63.12
2018-06-08T03:45:23.645Z,63.11
2018-06-08T03:46:24.127Z,63.14
2018-06-08T03:47:24.596Z,63.28
2018-06-08T03:48:25.069Z,63.14
2018-06-08T03:49:25.546Z,63.06
2018-06-08T03:50:26.020Z,63.25
2018-06-08T03:51:26.495Z,63.22
2018-06-08T03:52:26.968Z,63.28
2018-06-08T03:53:27.446Z,63.30
2018-06-08T03:54:27.918Z,63.33
2018-06-08T03:55:28.393Z,63.30
2018-06-08T03:56:28.867Z,63.30
2018-06-08T03:57:29.340Z,63.27
2018-06-08T03:58:29.814Z,63.24
2018-06-08T03:59:30.291Z,63.22
2018-06-08T04:00:30.763Z,63.19
2018-06-08T04:01:31.236Z,63.19
2018-06-08T04:02:31.815Z,63.16
2018-06-08T04:03:32.185Z,63.10
2018-06-08T04:04:32.658Z,63.07
2018-06-08T04:05:33.131Z,63.13
2018-06-08T04:06:33.605Z,63.19
2018-06-08T04:07:34.078Z,63.13
2018-06-08T04:08:34.550Z,63.10
2018-06-08T04:09:35.027Z,63.13
2018-06-08T04:10:35.495Z,63.18
2018-06-08T04:11:35.969Z,63.13
2018-06-08T04:12:36.639Z,63.10
2018-06-08T04:13:36.909Z,63.11
2018-06-08T04:14:37.381Z,63.14
2018-06-08T04:15:37.852Z,63.20
2018-06-08T04:16:38.325Z,63.25
2018-06-08T04:17:38.796Z,63.42
2018-06-08T04:18:39.270Z,63.59
2018-06-08T04:19:39.740Z,63.63
2018-06-08T04:20:40.212Z,63.54
2018-06-08T04:21:40.682Z,63.63
2018-06-08T04:22:41.154Z,63.72
2018-06-08T04:23:41.624Z,63.83
2018-06-08T04:24:42.093Z,63.90
2018-06-08T04:25:42.610Z,63.81
2018-06-08T04:26:43.039Z,63.76
2018-06-08T04:27:43.509Z,63.91
2018-06-08T04:28:43.980Z,63.89
2018-06-08T04:29:44.453Z,63.72
2018-06-08T04:30:44.923Z,63.81
2018-06-08T04:31:45.398Z,63.87
2018-06-08T04:32:45.919Z,63.71
2018-06-08T04:33:46.344Z,63.69
2018-06-08T04:34:46.810Z,63.75
2018-06-08T04:35:47.285Z,63.78
2018-06-08T04:36:47.755Z,63.76
2018-06-08T04:37:48.229Z,63.83
2018-06-08T04:38:48.702Z,63.78
2018-06-08T04:39:49.179Z,63.78
2018-06-08T04:40:49.651Z,63.79
2018-06-08T04:41:50.122Z,63.80
2018-06-08T04:42:50.599Z,63.83
2018-06-08T04:43:51.070Z,63.87
2018-06-08T04:44:51.544Z,63.87
2018-06-08T04:45:52.017Z,63.82
2018-06-08T04:46:52.490Z,63.83
2018-06-08T04:47:52.968Z,63.73
2018-06-08T04:48:53.440Z,63.65
2018-06-08T04:49:53.919Z,63.51
2018-06-08T04:50:54.390Z,63.47
2018-06-08T04:51:54.868Z,63.36
2018-06-08T04:52:55.342Z,63.28
2018-06-08T04:53:55.815Z,63.26
2018-06-08T04:54:56.300Z,63.21
2018-06-08T04:55:56.767Z,63.14
2018-06-08T04:56:57.241Z,63.06
2018-06-08T04:57:57.718Z,62.98
2018-06-08T04:58:58.193Z,62.93
2018-06-08T04:59:58.667Z,62.88
2018-06-08T05:00:59.142Z,62.86
2018-06-08T05:01:59.619Z,62.76
2018-06-08T05:03:00.096Z,62.71
2018-06-08T05:04:00.570Z,62.63
2018-06-08T05:05:01.044Z,62.50
2018-06-08T05:06:01.517Z,62.37
2018-06-08T05:07:01.993Z,62.29
2018-06-08T05:08:02.477Z,62.27
2018-06-08T05:09:02.942Z,62.19
2018-06-08T05:10:03.417Z,62.20
2018-06-08T05:11:03.893Z,62.13
2018-06-08T05:12:04.364Z,62.08
2018-06-08T05:13:04.884Z,62.00
2018-06-08T05:14:05.314Z,61.98
2018-06-08T05:15:05.787Z,61.93
2018-06-08T05:16:06.261Z,61.83
2018-06-08T05:17:06.732Z,61.81
2018-06-08T05:18:07.209Z,61.90
2018-06-08T05:19:07.681Z,61.91
2018-06-08T05:20:08.154Z,61.86
2018-06-08T05:21:08.626Z,61.90
2018-06-08T05:22:09.099Z,61.88
2018-06-08T05:23:09.628Z,61.92
2018-06-08T05:24:10.046Z,61.84
2018-06-08T05:25:10.517Z,61.79
2018-06-08T05:26:10.997Z,61.69
2018-06-08T05:27:11.463Z,61.58
2018-06-08T05:28:11.935Z,61.48
2018-06-08T05:29:12.408Z,61.37
2018-06-08T05:30:12.880Z,61.32
2018-06-08T05:31:13.350Z,61.27
2018-06-08T05:32:13.824Z,61.16
2018-06-08T05:33:14.295Z,61.09
2018-06-08T05:34:14.768Z,61.04
2018-06-08T05:35:15.239Z,60.90
2018-06-08T05:36:15.715Z,60.79
2018-06-08T05:37:16.249Z,60.72
2018-06-08T05:38:16.656Z,60.61
2018-06-08T05:39:17.126Z,60.53
2018-06-08T05:40:17.598Z,60.40
2018-06-08T05:41:18.069Z,60.26
2018-06-08T05:42:18.542Z,60.12
2018-06-08T05:43:19.016Z,60.05
2018-06-08T05:44:19.488Z,59.88
2018-06-08T05:45:19.958Z,59.74
2018-06-08T05:46:20.435Z,59.61
2018-06-08T05:47:20.908Z,59.50
2018-06-08T05:48:21.510Z,59.39
2018-06-08T05:49:21.850Z,59.28
2018-06-08T05:50:22.324Z,59.23
2018-06-08T05:51:22.799Z,59.21
2018-06-08T05:52:23.274Z,59.19
2018-06-08T05:53:23.746Z,59.14
2018-06-08T05:54:24.222Z,59.09
2018-06-08T05:55:24.697Z,58.98
2018-06-08T05:56:25.171Z,58.90
2018-06-08T05:57:25.645Z,58.90
2018-06-08T05:58:26.121Z,58.91
2018-06-08T05:59:26.599Z,58.86
2018-06-08T06:00:27.073Z,58.78
2018-06-08T06:01:27.554Z,58.76
2018-06-08T06:02:28.023Z,58.74
2018-06-08T06:03:28.500Z,58.63
2018-06-08T06:04:28.976Z,58.55
2018-06-08T06:05:29.451Z,58.38
2018-06-08T06:06:29.927Z,58.30
2018-06-08T06:07:30.405Z,58.22
2018-06-08T06:08:30.881Z,58.17
2018-06-08T06:09:31.359Z,58.08
2018-06-08T06:10:31.831Z,58.00
2018-06-08T06:11:32.310Z,57.92
2018-06-08T06:12:32.786Z,57.81
2018-06-08T06:13:33.310Z,57.73
2018-06-08T06:14:33.736Z,57.71
2018-06-08T06:15:34.214Z,57.62
2018-06-08T06:16:34.689Z,57.57
2018-06-08T06:17:35.165Z,57.49
2018-06-08T06:18:35.642Z,57.43
2018-06-08T06:19:36.117Z,57.38
2018-06-08T06:20:36.593Z,57.32
2018-06-08T06:21:37.068Z,57.27
2018-06-08T06:22:37.544Z,57.22
2018-06-08T06:23:38.017Z,57.16
2018-06-08T06:25:38.972Z,56.87
2018-06-08T06:26:39.443Z,56.73
2018-06-08T06:27:39.922Z,56.52
2018-06-08T06:28:40.443Z,56.41
2018-06-08T06:29:40.867Z,56.08
2018-06-08T06:30:41.341Z,55.97
2018-06-08T06:31:41.818Z,56.09
2018-06-08T06:32:42.293Z,56.00
2018-06-08T06:33:42.763Z,55.98
2018-06-08T06:34:43.238Z,55.95
2018-06-08T06:35:43.711Z,55.92
2018-06-08T06:36:44.186Z,55.87
2018-06-08T06:37:44.659Z,55.81
2018-06-08T06:38:45.138Z,55.67
2018-06-08T06:39:45.608Z,55.64
2018-06-08T06:40:46.082Z,55.61
2018-06-08T06:41:46.553Z,55.53
2018-06-08T06:42:47.027Z,55.32
2018-06-08T06:43:47.499Z,55.17
2018-06-08T06:44:48.023Z,55.11
2018-06-08T06:45:48.447Z,54.90
2018-06-08T06:46:48.919Z,54.66
2018-06-08T06:47:49.390Z,54.57
2018-06-08T06:48:49.864Z,54.67
2018-06-08T06:49:50.335Z,54.66
2018-06-08T06:50:50.808Z,54.64
2018-06-08T06:51:51.283Z,54.55
2018-06-08T06:52:51.753Z,54.43
2018-06-08T06:53:52.225Z,54.43
2018-06-08T06:54:52.699Z,54.37
2018-06-08T06:55:53.170Z,54.22
2018-06-08T06:56:53.642Z,54.20
2018-06-08T06:57:54.121Z,54.14
2018-06-08T06:58:54.624Z,54.11
2018-06-08T06:59:55.063Z,54.05
2018-06-08T07:00:55.529Z,53.99
2018-06-08T07:01:56.000Z,53.99
2018-06-08T07:02:56.472Z,54.11
2018-06-08T07:03:56.945Z,54.08
2018-06-08T07:04:57.420Z,54.05
2018-06-08T07:05:57.888Z,54.06
2018-06-08T07:06:58.361Z,54.00
2018-06-08T07:07:58.832Z,53.78
2018-06-08T07:08:59.304Z,53.82
2018-06-08T07:09:59.777Z,53.76
2018-06-08T07:11:00.251Z,53.67
2018-06-08T07:12:00.722Z,53.79
2018-06-08T07:13:01.195Z,53.73
2018-06-08T07:14:01.668Z,53.73
2018-06-08T07:15:02.144Z,53.64
2018-06-08T07:16:02.616Z,53.64
2018-06-08T07:17:03.087Z,53.80
2018-06-08T07:18:03.561Z,53.74
2018-06-08T07:19:04.033Z,53.74
2018-06-08T07:20:04.508Z,53.68
2018-06-08T07:21:04.983Z,53.53
2018-06-08T07:22:05.456Z,53.53
2018-06-08T07:23:05.934Z,53.63
2018-06-08T07:24:06.410Z,53.60
2018-06-08T07:25:06.883Z,53.63
2018-06-08T07:26:07.356Z,53.63
2018-06-08T07:27:07.832Z,53.60
2018-06-08T07:28:08.309Z,53.64
2018-06-08T07:29:08.786Z,53.70
2018-06-08T07:30:09.260Z,53.70
2018-06-08T07:31:09.736Z,53.71
2018-06-08T07:32:10.217Z,53.71
2018-06-08T07:33:10.688Z,53.65
2018-06-08T07:34:11.215Z,53.65
2018-06-08T07:35:11.642Z,53.60
2018-06-08T07:36:12.118Z,53.63
2018-06-08T07:37:12.593Z,53.54
2018-06-08T07:38:13.069Z,53.54
2018-06-08T07:39:13.546Z,53.54
2018-06-08T07:40:14.042Z,53.52
2018-06-08T07:41:14.532Z,53.52
2018-06-08T07:42:14.975Z,53.49
2018-06-08T07:43:15.451Z,53.43
2018-06-08T07:44:15.927Z,53.43
2018-06-08T07:45:16.406Z,53.28
2018-06-08T07:46:16.879Z,53.19
2018-06-08T07:47:17.355Z,53.23
2018-06-08T07:48:17.831Z,53.17
2018-06-08T07:49:18.308Z,53.11
2018-06-08T07:50:18.782Z,53.05
2018-06-08T07:51:19.257Z,53.02
2018-06-08T07:52:19.733Z,53.02
2018-06-08T07:53:20.210Z,52.99
2018-06-08T07:54:20.683Z,52.96
2018-06-08T07:55:21.158Z,52.97
2018-06-08T07:56:21.636Z,52.88
2018-06-08T07:57:22.108Z,52.88
2018-06-08T07:58:22.581Z,52.35
2018-06-08T07:59:23.182Z,52.36
2018-06-08T08:00:23.533Z,52.05
2018-06-08T08:01:24.006Z,52.30
2018-06-08T08:02:24.482Z,52.20
2018-06-08T08:03:24.956Z,52.21
2018-06-08T08:04:25.429Z,52.11
2018-06-08T08:05:25.905Z,52.30
2018-06-08T08:06:26.379Z,52.18
2018-06-08T08:07:26.852Z,52.21
2018-06-08T08:08:27.327Z,52.21
2018-06-08T08:09:27.809Z,51.87
2018-06-08T08:10:28.301Z,51.93
2018-06-08T08:11:28.746Z,51.69
2018-06-08T08:12:29.220Z,51.75
2018-06-08T08:13:29.697Z,51.78
2018-06-08T08:14:30.218Z,51.75
2018-06-08T08:15:30.640Z,51.44
2018-06-08T08:16:31.114Z,51.44
2018-06-08T08:17:31.588Z,51.48
2018-06-08T08:18:32.060Z,51.57
2018-06-08T08:19:32.585Z,51.57
2018-06-08T08:20:33.007Z,51.63
2018-06-08T08:21:33.482Z,51.64
2018-06-08T08:22:33.951Z,51.48
2018-06-08T08:23:34.424Z,51.30
2018-06-08T08:24:34.897Z,51.39
2018-06-08T08:25:35.371Z,51.39
2018-06-08T08:26:35.844Z,51.58
2018-06-08T08:27:36.315Z,51.64
2018-06-08T08:28:36.790Z,51.55
2018-06-08T08:29:37.259Z,51.40
2018-06-08T08:30:37.737Z,51.40
2018-06-08T08:31:38.205Z,51.37
2018-06-08T08:32:38.676Z,51.65
2018-06-08T08:33:39.149Z,51.59
2018-06-08T08:34:39.621Z,51.47
2018-06-08T08:35:40.094Z,51.65
2018-06-08T08:36:40.567Z,51.62
2018-06-08T08:37:41.037Z,51.53
2018-06-08T08:38:41.509Z,51.69
2018-06-08T08:39:42.003Z,51.57
2018-06-08T08:40:42.455Z,51.54
2018-06-08T08:41:42.927Z,51.73
2018-06-08T08:42:43.398Z,51.30
2018-06-08T08:43:43.869Z,51.61
2018-06-08T08:44:44.342Z,51.67
2018-06-08T08:45:44.856Z,51.65
2018-06-08T08:46:45.284Z,51.46
2018-06-08T08:47:45.757Z,51.50
2018-06-08T08:48:46.230Z,51.31
2018-06-08T08:49:46.701Z,51.34
2018-06-08T08:50:47.172Z,51.44
2018-06-08T08:51:47.700Z,51.54
2018-06-08T08:52:48.118Z,51.26
2018-06-08T08:53:48.590Z,51.45
2018-06-08T08:54:49.059Z,51.26
2018-06-08T08:55:49.532Z,51.11
2018-06-08T08:56:50.029Z,51.36
2018-06-08T08:57:50.479Z,51.15
2018-06-08T08:58:50.949Z,51.34
2018-06-08T08:59:51.429Z,51.28
2018-06-08T09:00:51.898Z,51.13
2018-06-08T09:01:52.369Z,51.16
2018-06-08T09:02:52.848Z,51.01
2018-06-08T09:03:53.326Z,51.11
2018-06-08T09:04:53.793Z,50.86
2018-06-08T09:05:54.268Z,51.12
2018-06-08T09:06:54.742Z,50.94
2018-06-08T09:07:55.217Z,50.72
2018-06-08T09:08:55.690Z,50.88
2018-06-08T09:09:56.168Z,50.82
2018-06-08T09:10:56.644Z,50.77
2018-06-08T09:11:57.119Z,50.14
2018-06-08T09:12:57.597Z,49.96
2018-06-08T09:13:58.074Z,50.31
2018-06-08T09:14:58.548Z,50.10
2018-06-08T09:15:59.025Z,49.94
2018-06-08T09:16:59.502Z,49.86
2018-06-08T09:17:59.977Z,49.67
2018-06-08T09:19:00.459Z,49.71
2018-06-08T09:20:00.932Z,49.71
2018-06-08T09:21:01.409Z,49.56
2018-06-08T09:22:01.887Z,49.37
2018-06-08T09:23:02.362Z,49.41
2018-06-08T09:24:02.839Z,49.45
2018-06-08T09:25:03.317Z,49.45
2018-06-08T09:26:03.793Z,49.40
2018-06-08T09:27:04.271Z,49.24
2018-06-08T09:28:04.747Z,49.15
2018-06-08T09:29:05.227Z,49.22
2018-06-08T09:30:05.704Z,49.16
2018-06-08T09:31:06.179Z,49.04
2018-06-08T09:32:06.655Z,48.73
2018-06-08T09:33:07.180Z,48.55
2018-06-08T09:34:07.610Z,48.75
2018-06-08T09:35:08.086Z,48.37
2018-06-08T09:36:08.563Z,48.44
2018-06-08T09:37:09.039Z,47.90
2018-06-08T09:38:09.518Z,47.78
2018-06-08T09:39:09.992Z,48.04
2018-06-08T09:40:10.521Z,47.60
2018-06-08T09:41:10.947Z,47.83
2018-06-08T09:42:11.424Z,47.54
2018-06-08T09:43:11.898Z,47.71
2018-06-08T09:44:12.376Z,47.52
2018-06-08T09:45:12.853Z,47.33
2018-06-08T09:46:13.390Z,47.27
2018-06-08T09:47:13.804Z,47.34
2018-06-08T09:48:14.279Z,47.28
2018-06-08T09:49:14.756Z,47.18
2018-06-08T09:50:15.233Z,47.09
2018-06-08T09:51:15.707Z,47.03
2018-06-08T09:52:16.182Z,47.09
2018-06-08T09:53:16.661Z,47.16
2018-06-08T09:54:17.137Z,47.35
2018-06-08T09:55:17.611Z,47.07
2018-06-08T09:56:18.087Z,46.78
2018-06-08T09:57:18.561Z,46.85
2018-06-08T09:58:19.041Z,46.79
2018-06-08T09:59:19.512Z,46.66
2018-06-08T10:00:19.988Z,47.04
2018-06-08T10:01:20.465Z,47.11
2018-06-08T10:02:20.940Z,46.89
2018-06-08T10:03:21.414Z,46.92
2018-06-08T10:04:21.890Z,47.05
2018-06-08T10:05:22.418Z,46.99
2018-06-08T10:06:22.842Z,46.55
2018-06-08T10:07:23.314Z,46.48
2018-06-08T10:08:23.791Z,46.84
2018-06-08T10:09:24.266Z,46.88
2018-06-08T10:10:24.743Z,46.75
2018-06-08T10:11:25.223Z,46.59
2018-06-08T10:12:25.690Z,46.72
2018-06-08T10:13:26.166Z,47.05
2018-06-08T10:14:26.640Z,46.92
2018-06-08T10:15:27.164Z,46.76
2018-06-08T10:16:27.589Z,46.70
2018-06-08T10:17:28.068Z,46.80
2018-06-08T10:18:28.541Z,46.51
2018-06-08T10:19:29.015Z,46.42
2018-06-08T10:20:29.488Z,46.42
2018-06-08T10:21:29.965Z,46.49
2018-06-08T10:22:30.440Z,46.59
2018-06-08T10:23:30.913Z,46.33
2018-06-08T10:24:31.387Z,46.33
2018-06-08T10:25:31.862Z,46.34
2018-06-08T10:26:32.343Z,46.47
2018-06-08T10:27:32.813Z,46.27
2018-06-08T10:28:33.287Z,46.12
2018-06-08T10:29:33.762Z,46.08
2018-06-08T10:30:34.293Z,46.31
2018-06-08T10:31:34.709Z,46.45
2018-06-08T10:32:35.186Z,46.35
2018-06-08T10:33:35.661Z,46.00
2018-06-08T10:34:36.136Z,45.84
2018-06-08T10:35:36.609Z,45.97
2018-06-08T10:36:37.084Z,46.16
2018-06-08T10:37:37.559Z,46.04
2018-06-08T10:38:38.033Z,45.78
2018-06-08T10:39:38.507Z,45.52
2018-06-08T10:40:38.982Z,45.33
2018-06-08T10:41:39.456Z,45.59
2018-06-08T10:42:39.932Z,45.75
2018-06-08T10:43:40.406Z,45.79
2018-06-08T10:44:40.880Z,45.56
2018-06-08T10:45:41.355Z,45.46
2018-06-08T10:46:41.888Z,45.60
2018-06-08T10:47:42.302Z,45.50
2018-06-08T10:48:42.779Z,45.50
2018-06-08T10:49:43.252Z,45.73
2018-06-08T10:50:43.724Z,45.82
2018-06-08T10:51:44.198Z,45.82
2018-06-08T10:52:44.674Z,45.79
2018-06-08T10:53:45.148Z,45.95
2018-06-08T10:54:45.622Z,45.95
2018-06-08T10:55:46.095Z,45.98
2018-06-08T10:56:46.571Z,45.72
2018-06-08T10:57:47.046Z,45.72
2018-06-08T10:58:47.521Z,45.62
2018-06-08T10:59:47.994Z,45.91
2018-06-08T11:00:48.469Z,45.85
2018-06-08T11:01:48.941Z,45.94
2018-06-08T11:02:49.418Z,46.10
2018-06-08T11:03:49.890Z,45.91
2018-06-08T11:04:50.363Z,45.58
2018-06-08T11:06:51.311Z,45.59
2018-06-08T11:07:51.785Z,45.52
2018-06-08T11:08:52.262Z,45.39
2018-06-08T11:09:52.740Z,45.33
2018-06-08T11:10:53.260Z,45.07
2018-06-08T11:11:53.681Z,45.26
2018-06-08T11:12:54.155Z,45.40
2018-06-08T11:13:54.628Z,45.14
2018-06-08T11:14:55.103Z,45.59
2018-06-08T11:15:55.628Z,45.95
2018-06-08T11:16:56.054Z,46.14
2018-06-08T11:17:56.525Z,45.98
2018-06-08T11:18:57.001Z,45.72
2018-06-08T11:19:57.546Z,45.73
2018-06-08T11:20:57.948Z,45.79
2018-06-08T11:21:58.425Z,45.92
2018-06-08T11:22:58.898Z,45.66
2018-06-08T11:23:59.374Z,45.66
2018-06-08T11:24:59.844Z,45.76
2018-06-08T11:26:00.320Z,45.53
2018-06-08T11:27:00.826Z,45.66
2018-06-08T11:28:01.268Z,45.47
2018-06-08T11:29:01.741Z,45.50
2018-06-08T11:30:02.217Z,45.53
2018-06-08T11:31:02.689Z,45.21
2018-06-08T11:32:03.164Z,45.40
2018-06-08T11:33:03.637Z,45.24
2018-06-08T11:34:04.109Z,45.56
2018-06-08T11:35:04.584Z,45.40
2018-06-08T11:36:05.058Z,45.21
2018-06-08T11:37:05.532Z,45.40
2018-06-08T11:38:06.007Z,45.27
2018-06-08T11:39:06.485Z,45.43
2018-06-08T11:40:06.955Z,45.27
2018-06-08T11:41:07.427Z,45.33
2018-06-08T11:42:07.903Z,45.37
2018-06-08T11:43:08.378Z,45.46
2018-06-08T11:44:08.850Z,45.43
2018-06-08T11:45:09.324Z,45.27
2018-06-08T11:46:09.798Z,45.40
2018-06-08T11:47:10.273Z,45.53
2018-06-08T11:48:10.745Z,45.37
2018-06-08T11:49:11.219Z,45.30
2018-06-08T11:50:11.693Z,45.33
2018-06-08T11:51:12.168Z,45.14
2018-06-08T11:52:12.640Z,45.20
2018-06-08T11:53:13.162Z,45.04
2018-06-08T11:54:13.593Z,45.14
2018-06-08T11:55:14.064Z,45.30
2018-06-08T11:56:14.535Z,45.33
2018-06-08T11:57:15.010Z,45.20
2018-06-08T11:58:15.484Z,45.33
2018-06-08T11:59:15.957Z,45.52
2018-06-08T12:00:16.455Z,45.39
2018-06-08T12:01:16.906Z,45.26
2018-06-08T12:02:17.382Z,45.26
2018-06-08T12:03:17.856Z,45.46
2018-06-08T12:04:18.327Z,45.23
2018-06-08T12:05:18.799Z,45.23
2018-06-08T12:06:19.273Z,45.36
2018-06-08T12:07:19.748Z,45.20
2018-06-08T12:08:20.224Z,45.42
2018-06-08T12:09:20.898Z,45.36
2018-06-08T12:10:21.173Z,45.39
2018-06-08T12:11:21.644Z,45.16
2018-06-08T12:12:22.115Z,44.87
2018-06-08T12:13:22.590Z,44.74
2018-06-08T12:14:23.065Z,45.00
2018-06-08T12:15:23.540Z,44.93
2018-06-08T12:16:24.012Z,44.90
2018-06-08T12:17:24.488Z,45.06
2018-06-08T12:18:24.964Z,44.93
2018-06-08T12:19:25.636Z,45.00
2018-06-08T12:20:25.911Z,45.10
2018-06-08T12:21:26.381Z,45.32
2018-06-08T12:22:26.854Z,45.71
2018-06-08T12:23:27.329Z,45.84
2018-06-08T12:24:27.805Z,45.68
2018-06-08T12:25:28.277Z,45.39
2018-06-08T12:26:28.757Z,45.26
2018-06-08T12:27:29.223Z,45.45
2018-06-08T12:28:29.697Z,45.26
2018-06-08T12:29:30.176Z,45.26
2018-06-08T12:30:30.645Z,45.58
2018-06-08T12:31:31.119Z,45.52
2018-06-08T12:32:31.593Z,45.58
2018-06-08T12:33:32.068Z,45.55
2018-06-08T12:34:32.543Z,45.23
2018-06-08T12:35:33.015Z,45.13
2018-06-08T12:36:33.489Z,45.10
2018-06-08T12:37:33.962Z,45.13
2018-06-08T12:38:34.437Z,45.16
2018-06-08T12:39:34.909Z,45.03
2018-06-08T12:40:35.383Z,45.00
2018-06-08T12:41:35.860Z,45.06
2018-06-08T12:42:36.334Z,45.19
2018-06-08T12:43:36.860Z,45.19
2018-06-08T12:44:37.279Z,45.19
2018-06-08T12:45:37.753Z,45.22
2018-06-08T12:46:38.225Z,45.38
2018-06-08T12:47:38.699Z,45.35
2018-06-08T12:48:39.176Z,45.29
2018-06-08T12:49:39.650Z,45.32
2018-06-08T12:50:40.124Z,45.38
2018-06-08T12:51:40.596Z,45.51
2018-06-08T12:52:41.072Z,45.77
2018-06-08T12:53:41.544Z,45.77
2018-06-08T12:54:42.017Z,45.83
2018-06-08T12:55:42.544Z,46.16
2018-06-08T12:56:42.966Z,46.06
2018-06-08T12:57:43.442Z,46.19
2018-06-08T12:58:44.113Z,46.22
2018-06-08T12:59:44.386Z,46.19
2018-06-08T13:00:44.859Z,45.77
2018-06-08T13:01:45.333Z,45.90